sensor_id;sensor_type;location;lat;lon;timestamp;temperature;humidity
48728;DHT22;34527;45.618;5.130;2023-02-11T00:01:19;-0.10;99.90
48728;DHT22;34527;45.618;5.130;2023-02-11T00:03:45;-0.10;99.90
48728;DHT22;34527;45.618;5.130;2023-02-11T00:06:11;-0.10;99.90
48728;DHT22;34527;45.618;5.130;2023-02-11T00:08:37;-0.10;99.90
48728;DHT22;34527;45.618;5.130;2023-02-11T00:11:03;-0.10;99.90
48728;DHT22;34527;45.618;5.130;2023-02-11T00:13:29;-0.20;99.90
48728;DHT22;34527;45.618;5.130;2023-02-11T00:15:55;-0.20;99.90
48728;DHT22;34527;45.618;5.130;2023-02-11T00:18:20;-0.20;99.90
48728;DHT22;34527;45.618;5.130;2023-02-11T00:20:46;-0.10;99.90
48728;DHT22;34527;45.618;5.130;2023-02-11T00:23:12;-0.20;99.90
48728;DHT22;34527;45.618;5.130;2023-02-11T00:25:41;-0.20;99.90
48728;DHT22;34527;45.618;5.130;2023-02-11T00:28:07;-0.30;99.90
48728;DHT22;34527;45.618;5.130;2023-02-11T00:30:33;-0.40;99.90
48728;DHT22;34527;45.618;5.130;2023-02-11T00:32:59;-0.40;99.90
48728;DHT22;34527;45.618;5.130;2023-02-11T00:35:24;-0.40;99.90
48728;DHT22;34527;45.618;5.130;2023-02-11T00:37:52;-0.40;99.90
48728;DHT22;34527;45.618;5.130;2023-02-11T00:40:18;-0.50;99.90
48728;DHT22;34527;45.618;5.130;2023-02-11T00:42:44;-0.60;99.90
48728;DHT22;34527;45.618;5.130;2023-02-11T00:45:10;-0.50;99.90
48728;DHT22;34527;45.618;5.130;2023-02-11T00:47:35;-0.50;99.90
48728;DHT22;34527;45.618;5.130;2023-02-11T00:50:02;-0.50;99.90
48728;DHT22;34527;45.618;5.130;2023-02-11T00:52:30;-0.50;99.90
48728;DHT22;34527;45.618;5.130;2023-02-11T00:54:55;-0.60;99.90
48728;DHT22;34527;45.618;5.130;2023-02-11T00:57:21;-0.70;99.90
48728;DHT22;34527;45.618;5.130;2023-02-11T00:59:47;-0.70;99.90
48728;DHT22;34527;45.618;5.130;2023-02-11T01:02:13;-0.70;99.90
48728;DHT22;34527;45.618;5.130;2023-02-11T01:04:38;-0.70;99.90
48728;DHT22;34527;45.618;5.130;2023-02-11T01:07:04;-0.80;99.90
48728;DHT22;34527;45.618;5.130;2023-02-11T01:09:30;-0.70;99.90
48728;DHT22;34527;45.618;5.130;2023-02-11T01:11:55;-0.80;99.90
48728;DHT22;34527;45.618;5.130;2023-02-11T01:14:21;-1.00;99.90
48728;DHT22;34527;45.618;5.130;2023-02-11T01:16:46;-0.90;99.90
48728;DHT22;34527;45.618;5.130;2023-02-11T01:19:12;-0.80;99.90
48728;DHT22;34527;45.618;5.130;2023-02-11T01:21:38;-0.80;99.90
48728;DHT22;34527;45.618;5.130;2023-02-11T01:24:03;-0.70;99.90
48728;DHT22;34527;45.618;5.130;2023-02-11T01:26:29;-0.80;99.90
48728;DHT22;34527;45.618;5.130;2023-02-11T01:28:55;-0.70;99.90
48728;DHT22;34527;45.618;5.130;2023-02-11T01:31:20;-0.70;99.90
48728;DHT22;34527;45.618;5.130;2023-02-11T01:33:46;-0.70;99.90
48728;DHT22;34527;45.618;5.130;2023-02-11T01:36:12;-0.80;99.90
48728;DHT22;34527;45.618;5.130;2023-02-11T01:38:38;-0.90;99.90
48728;DHT22;34527;45.618;5.130;2023-02-11T01:41:07;-0.90;99.90
48728;DHT22;34527;45.618;5.130;2023-02-11T01:43:39;-0.90;99.90
48728;DHT22;34527;45.618;5.130;2023-02-11T01:49:10;-0.90;99.90
48728;DHT22;34527;45.618;5.130;2023-02-11T01:51:45;-1.10;99.90
48728;DHT22;34527;45.618;5.130;2023-02-11T01:54:15;-1.00;99.90
48728;DHT22;34527;45.618;5.130;2023-02-11T01:57:01;-0.90;99.90
48728;DHT22;34527;45.618;5.130;2023-02-11T02:10:22;-0.90;99.90
48728;DHT22;34527;45.618;5.130;2023-02-11T02:12:49;-1.00;99.90
48728;DHT22;34527;45.618;5.130;2023-02-11T02:17:54;-1.00;99.90
48728;DHT22;34527;45.618;5.130;2023-02-11T02:23:25;-1.10;99.90
48728;DHT22;34527;45.618;5.130;2023-02-11T02:26:10;-1.10;99.90
48728;DHT22;34527;45.618;5.130;2023-02-11T02:34:05;-1.30;99.90
48728;DHT22;34527;45.618;5.130;2023-02-11T02:36:46;-1.20;99.90
48728;DHT22;34527;45.618;5.130;2023-02-11T02:39:26;-1.10;99.90
48728;DHT22;34527;45.618;5.130;2023-02-11T02:41:54;-1.10;99.90
48728;DHT22;34527;45.618;5.130;2023-02-11T02:44:20;-1.10;99.90
48728;DHT22;34527;45.618;5.130;2023-02-11T02:46:46;-1.10;99.90
48728;DHT22;34527;45.618;5.130;2023-02-11T02:49:12;-1.00;99.90
48728;DHT22;34527;45.618;5.130;2023-02-11T02:52:00;-1.10;99.90
48728;DHT22;34527;45.618;5.130;2023-02-11T02:57:19;-1.20;99.90
48728;DHT22;34527;45.618;5.130;2023-02-11T03:00:03;-1.20;99.90
48728;DHT22;34527;45.618;5.130;2023-02-11T03:05:38;-1.20;99.90
48728;DHT22;34527;45.618;5.130;2023-02-11T03:08:46;-1.20;99.90
48728;DHT22;34527;45.618;5.130;2023-02-11T03:11:16;-1.30;99.90
48728;DHT22;34527;45.618;5.130;2023-02-11T03:13:43;-1.40;99.90
48728;DHT22;34527;45.618;5.130;2023-02-11T03:16:14;-1.50;99.90
48728;DHT22;34527;45.618;5.130;2023-02-11T03:18:42;-1.40;99.90
48728;DHT22;34527;45.618;5.130;2023-02-11T03:21:09;-1.40;99.90
48728;DHT22;34527;45.618;5.130;2023-02-11T03:26:27;-1.30;99.90
48728;DHT22;34527;45.618;5.130;2023-02-11T03:31:36;-1.20;99.90
48728;DHT22;34527;45.618;5.130;2023-02-11T03:34:10;-1.20;99.90
48728;DHT22;34527;45.618;5.130;2023-02-11T03:36:49;-1.10;99.90
48728;DHT22;34527;45.618;5.130;2023-02-11T03:39:21;-1.10;99.90
48728;DHT22;34527;45.618;5.130;2023-02-11T03:41:49;-1.10;99.90
48728;DHT22;34527;45.618;5.130;2023-02-11T03:44:16;-1.10;99.90
48728;DHT22;34527;45.618;5.130;2023-02-11T03:46:48;-1.20;99.90
48728;DHT22;34527;45.618;5.130;2023-02-11T03:49:17;-1.20;99.90
48728;DHT22;34527;45.618;5.130;2023-02-11T03:51:46;-1.20;99.90
48728;DHT22;34527;45.618;5.130;2023-02-11T03:54:15;-1.40;99.90
48728;DHT22;34527;45.618;5.130;2023-02-11T03:56:49;-1.50;99.90
48728;DHT22;34527;45.618;5.130;2023-02-11T03:59:15;-1.40;99.90
48728;DHT22;34527;45.618;5.130;2023-02-11T04:01:41;-1.40;99.90
48728;DHT22;34527;45.618;5.130;2023-02-11T04:04:06;-1.50;99.90
48728;DHT22;34527;45.618;5.130;2023-02-11T04:06:32;-1.40;99.90
48728;DHT22;34527;45.618;5.130;2023-02-11T04:08:58;-1.50;99.90
48728;DHT22;34527;45.618;5.130;2023-02-11T04:11:23;-1.60;99.90
48728;DHT22;34527;45.618;5.130;2023-02-11T04:13:49;-1.70;99.90
48728;DHT22;34527;45.618;5.130;2023-02-11T04:16:14;-1.70;99.90
48728;DHT22;34527;45.618;5.130;2023-02-11T04:18:40;-1.60;99.90
48728;DHT22;34527;45.618;5.130;2023-02-11T04:21:05;-1.60;99.90
48728;DHT22;34527;45.618;5.130;2023-02-11T04:23:31;-1.70;99.90
48728;DHT22;34527;45.618;5.130;2023-02-11T04:25:57;-1.70;99.90
48728;DHT22;34527;45.618;5.130;2023-02-11T04:28:22;-1.70;99.90
48728;DHT22;34527;45.618;5.130;2023-02-11T04:30:49;-1.60;99.90
48728;DHT22;34527;45.618;5.130;2023-02-11T04:33:16;-1.60;99.90
48728;DHT22;34527;45.618;5.130;2023-02-11T04:35:41;-1.60;99.90
48728;DHT22;34527;45.618;5.130;2023-02-11T04:38:07;-1.50;99.90
48728;DHT22;34527;45.618;5.130;2023-02-11T04:40:32;-1.60;99.90
48728;DHT22;34527;45.618;5.130;2023-02-11T04:42:58;-1.60;99.90
48728;DHT22;34527;45.618;5.130;2023-02-11T04:45:24;-1.60;99.90
48728;DHT22;34527;45.618;5.130;2023-02-11T04:47:49;-1.70;99.90
48728;DHT22;34527;45.618;5.130;2023-02-11T04:50:15;-1.80;99.90
48728;DHT22;34527;45.618;5.130;2023-02-11T04:52:40;-1.80;99.90
48728;DHT22;34527;45.618;5.130;2023-02-11T04:55:06;-1.80;99.90
48728;DHT22;34527;45.618;5.130;2023-02-11T04:57:32;-1.80;99.90
48728;DHT22;34527;45.618;5.130;2023-02-11T04:59:57;-1.80;99.90
48728;DHT22;34527;45.618;5.130;2023-02-11T05:02:23;-1.80;99.90
48728;DHT22;34527;45.618;5.130;2023-02-11T05:04:49;-1.80;99.90
48728;DHT22;34527;45.618;5.130;2023-02-11T05:07:14;-1.80;99.90
48728;DHT22;34527;45.618;5.130;2023-02-11T05:09:40;-1.80;99.90
48728;DHT22;34527;45.618;5.130;2023-02-11T05:12:05;-1.80;99.90
48728;DHT22;34527;45.618;5.130;2023-02-11T05:14:31;-1.70;99.90
48728;DHT22;34527;45.618;5.130;2023-02-11T05:16:57;-1.70;99.90
48728;DHT22;34527;45.618;5.130;2023-02-11T05:19:23;-1.80;99.90
48728;DHT22;34527;45.618;5.130;2023-02-11T05:21:49;-1.80;99.90
48728;DHT22;34527;45.618;5.130;2023-02-11T05:24:14;-1.70;99.90
48728;DHT22;34527;45.618;5.130;2023-02-11T05:26:40;-1.60;99.90
48728;DHT22;34527;45.618;5.130;2023-02-11T05:29:06;-1.60;99.90
48728;DHT22;34527;45.618;5.130;2023-02-11T05:31:31;-1.80;99.90
48728;DHT22;34527;45.618;5.130;2023-02-11T05:33:57;-1.80;99.90
48728;DHT22;34527;45.618;5.130;2023-02-11T05:36:23;-1.80;99.90
48728;DHT22;34527;45.618;5.130;2023-02-11T05:38:48;-1.90;99.90
48728;DHT22;34527;45.618;5.130;2023-02-11T05:41:15;-2.00;99.90
48728;DHT22;34527;45.618;5.130;2023-02-11T05:43:40;-2.00;99.90
48728;DHT22;34527;45.618;5.130;2023-02-11T05:46:06;-2.00;99.90
48728;DHT22;34527;45.618;5.130;2023-02-11T05:48:32;-2.00;99.90
48728;DHT22;34527;45.618;5.130;2023-02-11T05:50:58;-1.90;99.90
48728;DHT22;34527;45.618;5.130;2023-02-11T05:53:24;-1.90;99.90
48728;DHT22;34527;45.618;5.130;2023-02-11T05:55:50;-1.90;99.90
48728;DHT22;34527;45.618;5.130;2023-02-11T05:58:15;-1.90;99.90
48728;DHT22;34527;45.618;5.130;2023-02-11T06:00:41;-2.00;99.90
48728;DHT22;34527;45.618;5.130;2023-02-11T06:03:07;-2.10;99.90
48728;DHT22;34527;45.618;5.130;2023-02-11T06:05:32;-2.10;99.90
48728;DHT22;34527;45.618;5.130;2023-02-11T06:07:58;-2.10;99.90
48728;DHT22;34527;45.618;5.130;2023-02-11T06:10:24;-2.10;99.90
48728;DHT22;34527;45.618;5.130;2023-02-11T06:12:50;-2.10;99.90
48728;DHT22;34527;45.618;5.130;2023-02-11T06:15:15;-2.00;99.90
48728;DHT22;34527;45.618;5.130;2023-02-11T06:17:41;-2.00;99.90
48728;DHT22;34527;45.618;5.130;2023-02-11T06:20:07;-2.00;99.90
48728;DHT22;34527;45.618;5.130;2023-02-11T06:22:34;-2.10;99.90
48728;DHT22;34527;45.618;5.130;2023-02-11T06:25:00;-2.00;99.90
48728;DHT22;34527;45.618;5.130;2023-02-11T06:27:26;-2.00;99.90
48728;DHT22;34527;45.618;5.130;2023-02-11T06:29:51;-2.00;99.90
48728;DHT22;34527;45.618;5.130;2023-02-11T06:32:17;-2.00;99.90
48728;DHT22;34527;45.618;5.130;2023-02-11T06:34:42;-2.00;99.90
48728;DHT22;34527;45.618;5.130;2023-02-11T06:37:08;-2.00;99.90
48728;DHT22;34527;45.618;5.130;2023-02-11T06:39:34;-2.00;99.90
48728;DHT22;34527;45.618;5.130;2023-02-11T06:41:59;-2.10;99.90
48728;DHT22;34527;45.618;5.130;2023-02-11T06:44:25;-2.10;99.90
48728;DHT22;34527;45.618;5.130;2023-02-11T06:46:50;-2.20;99.90
48728;DHT22;34527;45.618;5.130;2023-02-11T06:49:16;-2.10;99.90
48728;DHT22;34527;45.618;5.130;2023-02-11T06:51:42;-2.00;99.90
48728;DHT22;34527;45.618;5.130;2023-02-11T06:54:07;-2.00;99.90
48728;DHT22;34527;45.618;5.130;2023-02-11T06:56:33;-1.90;99.90
48728;DHT22;34527;45.618;5.130;2023-02-11T06:58:59;-2.00;99.90
48728;DHT22;34527;45.618;5.130;2023-02-11T07:01:25;-2.10;99.90
48728;DHT22;34527;45.618;5.130;2023-02-11T07:03:52;-2.10;99.90
48728;DHT22;34527;45.618;5.130;2023-02-11T07:06:20;-2.10;99.90
48728;DHT22;34527;45.618;5.130;2023-02-11T07:08:47;-2.10;99.90
48728;DHT22;34527;45.618;5.130;2023-02-11T07:11:19;-2.10;99.90
48728;DHT22;34527;45.618;5.130;2023-02-11T07:13:46;-2.00;99.90
48728;DHT22;34527;45.618;5.130;2023-02-11T07:16:14;-1.90;99.90
48728;DHT22;34527;45.618;5.130;2023-02-11T07:18:40;-2.00;99.90
48728;DHT22;34527;45.618;5.130;2023-02-11T07:21:08;-1.90;99.90
48728;DHT22;34527;45.618;5.130;2023-02-11T07:23:34;-1.90;99.90
48728;DHT22;34527;45.618;5.130;2023-02-11T07:26:08;-2.00;99.90
48728;DHT22;34527;45.618;5.130;2023-02-11T07:28:35;-1.90;99.90
48728;DHT22;34527;45.618;5.130;2023-02-11T07:31:12;-1.80;99.90
48728;DHT22;34527;45.618;5.130;2023-02-11T07:33:38;-1.80;99.90
48728;DHT22;34527;45.618;5.130;2023-02-11T07:36:05;-1.70;99.90
48728;DHT22;34527;45.618;5.130;2023-02-11T07:38:32;-1.60;99.90
48728;DHT22;34527;45.618;5.130;2023-02-11T07:41:00;-1.60;99.90
48728;DHT22;34527;45.618;5.130;2023-02-11T07:43:26;-1.50;99.90
48728;DHT22;34527;45.618;5.130;2023-02-11T07:45:52;-1.50;99.90
48728;DHT22;34527;45.618;5.130;2023-02-11T07:48:17;-1.50;99.90
48728;DHT22;34527;45.618;5.130;2023-02-11T07:50:43;-1.40;99.90
48728;DHT22;34527;45.618;5.130;2023-02-11T07:53:08;-1.40;99.90
48728;DHT22;34527;45.618;5.130;2023-02-11T07:55:34;-1.40;99.90
48728;DHT22;34527;45.618;5.130;2023-02-11T07:58:00;-1.30;99.90
48728;DHT22;34527;45.618;5.130;2023-02-11T08:00:25;-1.30;99.90
48728;DHT22;34527;45.618;5.130;2023-02-11T08:02:51;-1.20;99.90
48728;DHT22;34527;45.618;5.130;2023-02-11T08:05:16;-1.10;99.90
48728;DHT22;34527;45.618;5.130;2023-02-11T08:07:42;-1.20;99.90
48728;DHT22;34527;45.618;5.130;2023-02-11T08:10:08;-1.10;99.90
48728;DHT22;34527;45.618;5.130;2023-02-11T08:12:34;-1.10;99.90
48728;DHT22;34527;45.618;5.130;2023-02-11T08:14:59;-1.00;99.90
48728;DHT22;34527;45.618;5.130;2023-02-11T08:17:25;-0.90;99.90
48728;DHT22;34527;45.618;5.130;2023-02-11T08:19:50;-0.80;99.90
48728;DHT22;34527;45.618;5.130;2023-02-11T08:22:16;-0.70;99.90
48728;DHT22;34527;45.618;5.130;2023-02-11T08:24:42;-0.70;99.90
48728;DHT22;34527;45.618;5.130;2023-02-11T08:27:07;-0.60;99.90
48728;DHT22;34527;45.618;5.130;2023-02-11T08:29:33;-0.50;99.90
48728;DHT22;34527;45.618;5.130;2023-02-11T08:31:58;-0.40;99.90
48728;DHT22;34527;45.618;5.130;2023-02-11T08:34:24;-0.30;99.90
48728;DHT22;34527;45.618;5.130;2023-02-11T08:36:49;-0.30;99.90
48728;DHT22;34527;45.618;5.130;2023-02-11T08:39:18;-0.20;99.90
48728;DHT22;34527;45.618;5.130;2023-02-11T08:41:45;-0.10;99.90
48728;DHT22;34527;45.618;5.130;2023-02-11T08:44:11;-0.10;99.90
48728;DHT22;34527;45.618;5.130;2023-02-11T08:46:37;0.00;99.90
48728;DHT22;34527;45.618;5.130;2023-02-11T08:49:02;0.10;99.90
48728;DHT22;34527;45.618;5.130;2023-02-11T08:51:28;0.10;99.90
48728;DHT22;34527;45.618;5.130;2023-02-11T08:53:57;0.30;99.90
48728;DHT22;34527;45.618;5.130;2023-02-11T08:56:24;0.40;99.90
48728;DHT22;34527;45.618;5.130;2023-02-11T08:58:51;0.50;99.90
48728;DHT22;34527;45.618;5.130;2023-02-11T09:01:23;0.50;99.90
48728;DHT22;34527;45.618;5.130;2023-02-11T09:03:49;0.70;99.90
48728;DHT22;34527;45.618;5.130;2023-02-11T09:06:15;0.80;99.90
48728;DHT22;34527;45.618;5.130;2023-02-11T09:08:43;0.90;99.90
48728;DHT22;34527;45.618;5.130;2023-02-11T09:11:10;1.00;99.90
48728;DHT22;34527;45.618;5.130;2023-02-11T09:13:36;0.90;99.90
48728;DHT22;34527;45.618;5.130;2023-02-11T09:16:03;1.10;99.90
48728;DHT22;34527;45.618;5.130;2023-02-11T09:18:30;1.20;99.90
48728;DHT22;34527;45.618;5.130;2023-02-11T09:21:07;1.20;99.90
48728;DHT22;34527;45.618;5.130;2023-02-11T09:23:34;1.40;99.90
48728;DHT22;34527;45.618;5.130;2023-02-11T09:26:11;1.50;99.90
48728;DHT22;34527;45.618;5.130;2023-02-11T09:28:37;1.60;99.90
48728;DHT22;34527;45.618;5.130;2023-02-11T09:31:08;1.70;99.90
48728;DHT22;34527;45.618;5.130;2023-02-11T09:33:34;1.80;99.90
48728;DHT22;34527;45.618;5.130;2023-02-11T09:36:02;1.90;99.90
48728;DHT22;34527;45.618;5.130;2023-02-11T09:38:28;1.90;99.90
48728;DHT22;34527;45.618;5.130;2023-02-11T09:40:54;1.90;99.90
48728;DHT22;34527;45.618;5.130;2023-02-11T09:43:23;2.00;99.90
48728;DHT22;34527;45.618;5.130;2023-02-11T09:45:49;2.20;99.90
48728;DHT22;34527;45.618;5.130;2023-02-11T09:48:19;2.30;99.90
48728;DHT22;34527;45.618;5.130;2023-02-11T09:50:59;2.40;99.90
48728;DHT22;34527;45.618;5.130;2023-02-11T09:53:27;2.50;99.90
48728;DHT22;34527;45.618;5.130;2023-02-11T09:55:56;2.50;99.90
48728;DHT22;34527;45.618;5.130;2023-02-11T09:58:35;2.50;99.90
48728;DHT22;34527;45.618;5.130;2023-02-11T10:04:42;2.70;99.90
48728;DHT22;34527;45.618;5.130;2023-02-11T10:15:44;2.80;99.90
48728;DHT22;34527;45.618;5.130;2023-02-11T10:21:14;3.10;99.90
48728;DHT22;34527;45.618;5.130;2023-02-11T10:23:45;3.10;99.90
48728;DHT22;34527;45.618;5.130;2023-02-11T10:26:14;3.10;99.90
48728;DHT22;34527;45.618;5.130;2023-02-11T10:28:44;3.30;99.90
48728;DHT22;34527;45.618;5.130;2023-02-11T10:31:17;3.20;99.90
48728;DHT22;34527;45.618;5.130;2023-02-11T10:33:45;3.30;99.90
48728;DHT22;34527;45.618;5.130;2023-02-11T10:36:15;3.50;99.90
48728;DHT22;34527;45.618;5.130;2023-02-11T10:38:42;3.70;99.90
48728;DHT22;34527;45.618;5.130;2023-02-11T10:41:21;3.70;99.90
48728;DHT22;34527;45.618;5.130;2023-02-11T10:43:49;3.70;99.90
48728;DHT22;34527;45.618;5.130;2023-02-11T10:46:22;3.80;99.90
48728;DHT22;34527;45.618;5.130;2023-02-11T10:48:52;3.80;99.90
48728;DHT22;34527;45.618;5.130;2023-02-11T10:51:25;3.90;99.90
48728;DHT22;34527;45.618;5.130;2023-02-11T10:56:37;4.00;99.90
48728;DHT22;34527;45.618;5.130;2023-02-11T10:59:12;4.10;99.90
48728;DHT22;34527;45.618;5.130;2023-02-11T11:01:51;4.10;99.90
48728;DHT22;34527;45.618;5.130;2023-02-11T11:04:43;4.20;99.90
48728;DHT22;34527;45.618;5.130;2023-02-11T11:07:19;4.20;99.90
48728;DHT22;34527;45.618;5.130;2023-02-11T11:09:51;4.30;99.90
48728;DHT22;34527;45.618;5.130;2023-02-11T11:12:44;4.30;99.90
48728;DHT22;34527;45.618;5.130;2023-02-11T11:15:26;4.40;99.90
48728;DHT22;34527;45.618;5.130;2023-02-11T11:18:16;4.40;99.90
48728;DHT22;34527;45.618;5.130;2023-02-11T11:21:00;4.40;99.90
48728;DHT22;34527;45.618;5.130;2023-02-11T11:23:28;4.50;99.90
48728;DHT22;34527;45.618;5.130;2023-02-11T11:28:27;4.70;99.90
48728;DHT22;34527;45.618;5.130;2023-02-11T11:30:54;4.60;99.90
48728;DHT22;34527;45.618;5.130;2023-02-11T11:33:30;4.70;99.90
48728;DHT22;34527;45.618;5.130;2023-02-11T11:36:01;4.80;99.90
48728;DHT22;34527;45.618;5.130;2023-02-11T11:38:29;4.70;99.90
48728;DHT22;34527;45.618;5.130;2023-02-11T11:41:15;4.80;99.90
48728;DHT22;34527;45.618;5.130;2023-02-11T11:50:04;4.90;99.90
48728;DHT22;34527;45.618;5.130;2023-02-11T11:52:44;4.90;99.90
48728;DHT22;34527;45.618;5.130;2023-02-11T11:55:18;4.90;99.90
48728;DHT22;34527;45.618;5.130;2023-02-11T11:57:45;4.80;99.90
48728;DHT22;34527;45.618;5.130;2023-02-11T12:05:51;5.00;99.90
48728;DHT22;34527;45.618;5.130;2023-02-11T12:11:15;5.00;99.90
48728;DHT22;34527;45.618;5.130;2023-02-11T12:14:02;5.00;99.90
48728;DHT22;34527;45.618;5.130;2023-02-11T12:36:04;5.40;99.90
48728;DHT22;34527;45.618;5.130;2023-02-11T12:44:08;5.40;99.90
48728;DHT22;34527;45.618;5.130;2023-02-11T12:46:55;5.60;99.90
48728;DHT22;34527;45.618;5.130;2023-02-11T12:54:53;5.90;99.90
48728;DHT22;34527;45.618;5.130;2023-02-11T12:57:20;6.00;99.90
48728;DHT22;34527;45.618;5.130;2023-02-11T13:05:28;6.00;99.90
48728;DHT22;34527;45.618;5.130;2023-02-11T13:11:04;5.90;99.90
48728;DHT22;34527;45.618;5.130;2023-02-11T13:13:36;6.00;99.90
48728;DHT22;34527;45.618;5.130;2023-02-11T13:16:18;6.00;99.90
48728;DHT22;34527;45.618;5.130;2023-02-11T13:24:13;6.40;99.90
48728;DHT22;34527;45.618;5.130;2023-02-11T13:26:48;6.30;99.90
48728;DHT22;34527;45.618;5.130;2023-02-11T13:32:11;6.40;99.90
48728;DHT22;34527;45.618;5.130;2023-02-11T13:37:21;6.30;99.90
48728;DHT22;34527;45.618;5.130;2023-02-11T13:40:39;6.40;99.90
48728;DHT22;34527;45.618;5.130;2023-02-11T13:42:54;6.40;99.90
48728;DHT22;34527;45.618;5.130;2023-02-11T13:45:40;6.50;99.90
48728;DHT22;34527;45.618;5.130;2023-02-11T13:50:52;6.70;99.90
48728;DHT22;34527;45.618;5.130;2023-02-11T13:53:19;6.80;99.90
48728;DHT22;34527;45.618;5.130;2023-02-11T13:55:48;6.80;99.90
48728;DHT22;34527;45.618;5.130;2023-02-11T13:58:15;6.80;99.90
48728;DHT22;34527;45.618;5.130;2023-02-11T14:14:27;6.90;99.90
48728;DHT22;34527;45.618;5.130;2023-02-11T14:19:39;7.00;99.90
48728;DHT22;34527;45.618;5.130;2023-02-11T14:22:16;7.00;99.90
48728;DHT22;34527;45.618;5.130;2023-02-11T14:24:48;7.00;99.90
48728;DHT22;34527;45.618;5.130;2023-02-11T14:27:24;7.00;99.90
48728;DHT22;34527;45.618;5.130;2023-02-11T14:35:43;7.10;99.90
48728;DHT22;34527;45.618;5.130;2023-02-11T14:43:40;7.20;99.90
48728;DHT22;34527;45.618;5.130;2023-02-11T14:46:11;7.10;99.90
48728;DHT22;34527;45.618;5.130;2023-02-11T14:48:38;7.20;99.90
48728;DHT22;34527;45.618;5.130;2023-02-11T14:51:10;7.10;99.90
48728;DHT22;34527;45.618;5.130;2023-02-11T14:53:42;7.10;99.90
48728;DHT22;34527;45.618;5.130;2023-02-11T14:56:21;7.10;99.90
48728;DHT22;34527;45.618;5.130;2023-02-11T14:58:48;7.10;99.90
48728;DHT22;34527;45.618;5.130;2023-02-11T15:01:31;7.10;99.90
48728;DHT22;34527;45.618;5.130;2023-02-11T15:03:58;7.10;99.90
48728;DHT22;34527;45.618;5.130;2023-02-11T15:06:52;7.00;99.90
48728;DHT22;34527;45.618;5.130;2023-02-11T15:09:20;6.90;99.90
48728;DHT22;34527;45.618;5.130;2023-02-11T15:11:50;6.90;99.90
48728;DHT22;34527;45.618;5.130;2023-02-11T15:16:49;6.80;99.90
48728;DHT22;34527;45.618;5.130;2023-02-11T15:22:26;6.70;99.90
48728;DHT22;34527;45.618;5.130;2023-02-11T15:27:39;6.70;99.90
48728;DHT22;34527;45.618;5.130;2023-02-11T15:32:47;6.70;99.90
48728;DHT22;34527;45.618;5.130;2023-02-11T15:35:15;6.60;99.90
48728;DHT22;34527;45.618;5.130;2023-02-11T15:37:42;6.60;99.90
48728;DHT22;34527;45.618;5.130;2023-02-11T15:40:15;6.60;99.90
48728;DHT22;34527;45.618;5.130;2023-02-11T15:43:06;6.60;99.90
48728;DHT22;34527;45.618;5.130;2023-02-11T15:48:13;6.50;99.90
48728;DHT22;34527;45.618;5.130;2023-02-11T15:50:42;6.50;99.90
48728;DHT22;34527;45.618;5.130;2023-02-11T15:53:20;6.50;99.90
48728;DHT22;34527;45.618;5.130;2023-02-11T15:55:49;6.50;99.90
48728;DHT22;34527;45.618;5.130;2023-02-11T15:58:15;6.50;99.90
48728;DHT22;34527;45.618;5.130;2023-02-11T16:00:49;6.50;99.90
48728;DHT22;34527;45.618;5.130;2023-02-11T16:03:27;6.50;99.90
48728;DHT22;34527;45.618;5.130;2023-02-11T16:06:13;6.50;99.90
48728;DHT22;34527;45.618;5.130;2023-02-11T16:08:39;6.40;99.90
48728;DHT22;34527;45.618;5.130;2023-02-11T16:11:27;6.40;99.90
48728;DHT22;34527;45.618;5.130;2023-02-11T16:13:55;6.40;99.90
48728;DHT22;34527;45.618;5.130;2023-02-11T16:16:29;6.40;99.90
48728;DHT22;34527;45.618;5.130;2023-02-11T16:18:58;6.40;99.90
48728;DHT22;34527;45.618;5.130;2023-02-11T16:21:34;6.30;99.90
48728;DHT22;34527;45.618;5.130;2023-02-11T16:24:05;6.30;99.90
48728;DHT22;34527;45.618;5.130;2023-02-11T16:26:35;6.30;99.90
48728;DHT22;34527;45.618;5.130;2023-02-11T16:31:37;6.20;99.90
48728;DHT22;34527;45.618;5.130;2023-02-11T16:34:10;6.20;99.90
48728;DHT22;34527;45.618;5.130;2023-02-11T16:36:37;6.10;99.90
48728;DHT22;34527;45.618;5.130;2023-02-11T16:39:03;6.00;99.90
48728;DHT22;34527;45.618;5.130;2023-02-11T16:41:28;5.90;99.90
48728;DHT22;34527;45.618;5.130;2023-02-11T16:43:56;5.80;99.90
48728;DHT22;34527;45.618;5.130;2023-02-11T16:46:21;5.70;99.90
48728;DHT22;34527;45.618;5.130;2023-02-11T16:48:47;5.70;99.90
48728;DHT22;34527;45.618;5.130;2023-02-11T16:51:12;5.50;99.90
48728;DHT22;34527;45.618;5.130;2023-02-11T16:53:38;5.40;99.90
48728;DHT22;34527;45.618;5.130;2023-02-11T16:56:04;5.10;99.90
48728;DHT22;34527;45.618;5.130;2023-02-11T16:58:29;5.10;99.90
48728;DHT22;34527;45.618;5.130;2023-02-11T17:00:55;4.90;99.90
48728;DHT22;34527;45.618;5.130;2023-02-11T17:03:24;4.70;99.90
48728;DHT22;34527;45.618;5.130;2023-02-11T17:05:51;4.50;99.90
48728;DHT22;34527;45.618;5.130;2023-02-11T17:08:17;4.50;99.90
48728;DHT22;34527;45.618;5.130;2023-02-11T17:10:43;4.30;99.90
48728;DHT22;34527;45.618;5.130;2023-02-11T17:13:09;4.20;99.90
48728;DHT22;34527;45.618;5.130;2023-02-11T17:15:34;4.20;99.90
48728;DHT22;34527;45.618;5.130;2023-02-11T17:18:00;4.10;99.90
48728;DHT22;34527;45.618;5.130;2023-02-11T17:20:26;4.00;99.90
48728;DHT22;34527;45.618;5.130;2023-02-11T17:22:51;3.80;99.90
48728;DHT22;34527;45.618;5.130;2023-02-11T17:25:17;3.60;99.90
48728;DHT22;34527;45.618;5.130;2023-02-11T17:27:43;3.60;99.90
48728;DHT22;34527;45.618;5.130;2023-02-11T17:30:11;3.50;99.90
48728;DHT22;34527;45.618;5.130;2023-02-11T17:32:37;3.40;99.90
48728;DHT22;34527;45.618;5.130;2023-02-11T17:35:03;3.40;99.90
48728;DHT22;34527;45.618;5.130;2023-02-11T17:37:30;3.40;99.90
48728;DHT22;34527;45.618;5.130;2023-02-11T17:39:56;3.30;99.90
48728;DHT22;34527;45.618;5.130;2023-02-11T17:42:22;3.10;99.90
48728;DHT22;34527;45.618;5.130;2023-02-11T17:44:47;3.10;99.90
48728;DHT22;34527;45.618;5.130;2023-02-11T17:47:13;3.00;99.90
48728;DHT22;34527;45.618;5.130;2023-02-11T17:49:39;3.00;99.90
48728;DHT22;34527;45.618;5.130;2023-02-11T17:52:04;2.90;99.90
48728;DHT22;34527;45.618;5.130;2023-02-11T17:54:30;2.80;99.90
48728;DHT22;34527;45.618;5.130;2023-02-11T17:56:55;2.80;99.90
48728;DHT22;34527;45.618;5.130;2023-02-11T17:59:21;2.70;99.90
48728;DHT22;34527;45.618;5.130;2023-02-11T18:01:47;2.70;99.90
48728;DHT22;34527;45.618;5.130;2023-02-11T18:04:15;2.70;99.90
48728;DHT22;34527;45.618;5.130;2023-02-11T18:06:41;2.60;99.90
48728;DHT22;34527;45.618;5.130;2023-02-11T18:09:07;2.60;99.90
48728;DHT22;34527;45.618;5.130;2023-02-11T18:11:33;2.60;99.90
48728;DHT22;34527;45.618;5.130;2023-02-11T18:14:01;2.50;99.90
48728;DHT22;34527;45.618;5.130;2023-02-11T18:16:26;2.30;99.90
48728;DHT22;34527;45.618;5.130;2023-02-11T18:18:54;2.30;99.90
48728;DHT22;34527;45.618;5.130;2023-02-11T18:21:21;2.20;99.90
48728;DHT22;34527;45.618;5.130;2023-02-11T18:23:47;2.10;99.90
48728;DHT22;34527;45.618;5.130;2023-02-11T18:26:15;2.20;99.90
48728;DHT22;34527;45.618;5.130;2023-02-11T18:28:40;2.20;99.90
48728;DHT22;34527;45.618;5.130;2023-02-11T18:31:07;2.00;99.90
48728;DHT22;34527;45.618;5.130;2023-02-11T18:33:34;2.00;99.90
48728;DHT22;34527;45.618;5.130;2023-02-11T18:36:07;2.00;99.90